»·PEaware :: N8029B KSBP-KBUR

N8029B :: KSBP-KBUR

FLIGHT INFORMATION

Flight Status: Arrived
Operator: Privately registered:
United States
More flights under this callsign
Pilot: Stephane C. (508)
Aircraft: CESSNA T210 TURBO CENTURION
(T210)
More flights by this aircraft type
Origin: KSBP San Luis Co Regl
United States
Destination: KBUR Bob Hope-Burbank
United States
More flights between these airports :: More routes between these airports
Route: +RZS V186 FIM
File this flight plan on PilotEdge
Remarks:
Altitude:
(Current/Filed)
7,000ft
Speed:
(Current/Filed)
170kts
Departed: 28-Sep-18 08:47 AM
Arrived: 28-Sep-18 10:42 AM
Distance/Time
Traveled:
129nm/1:55
Distance/Time
To Go:
Arrived

Flight Plot

Page will automatically refresh every two minutes.


Map Options




Map Legend


Flown Route
Filed Route
Departure Airport
Arrival Airport
Navaid (VOR, NDB)
Fix

Horizontal Profiles

Position Reports

Time Latitude Longitude Heading Altitude Ground
Speed
28-Sep-18 08:04 35.238867 -120.638659 270 184ft 0kts
28-Sep-18 08:05 35.238867 -120.638659 270 184ft 0kts
28-Sep-18 08:06 35.238867 -120.638659 270 184ft 0kts
28-Sep-18 08:07 35.238867 -120.638659 270 184ft 0kts
28-Sep-18 08:08 35.238867 -120.638659 270 184ft 0kts
28-Sep-18 08:09 35.238867 -120.638659 270 184ft 0kts
28-Sep-18 08:10 35.238867 -120.638659 270 184ft 0kts
28-Sep-18 08:11 35.238867 -120.638659 270 184ft 0kts
28-Sep-18 08:12 35.238867 -120.638659 270 184ft 0kts
28-Sep-18 08:13 35.238867 -120.638659 270 184ft 0kts
28-Sep-18 08:14 35.238867 -120.638659 270 184ft 0kts
28-Sep-18 08:15 35.238867 -120.638659 270 184ft 0kts
28-Sep-18 08:16 35.238867 -120.638659 270 184ft 0kts
28-Sep-18 08:17 35.238867 -120.638659 270 184ft 0kts
28-Sep-18 08:18 35.238867 -120.638659 270 184ft 0kts
28-Sep-18 08:19 35.238867 -120.638659 270 184ft 0kts
28-Sep-18 08:20 35.238867 -120.638659 270 184ft 0kts
28-Sep-18 08:21 35.238867 -120.638659 270 184ft 0kts
28-Sep-18 08:22 35.238867 -120.638659 270 184ft 0kts
28-Sep-18 08:23 35.238867 -120.638659 270 184ft 0kts
28-Sep-18 08:24 35.238867 -120.638659 270 184ft 0kts
28-Sep-18 08:25 35.238867 -120.638659 270 184ft 0kts
28-Sep-18 08:26 35.238867 -120.638659 270 184ft 0kts
28-Sep-18 08:27 35.238867 -120.638659 270 184ft 0kts
28-Sep-18 08:28 35.238867 -120.638659 270 184ft 0kts
28-Sep-18 08:29 35.238867 -120.638659 270 184ft 0kts
28-Sep-18 08:30 35.238867 -120.638659 270 184ft 0kts
28-Sep-18 08:31 35.238867 -120.638659 270 184ft 0kts
28-Sep-18 08:32 35.238867 -120.638659 270 184ft 0kts
28-Sep-18 08:33 35.238867 -120.638659 270 184ft 0kts
28-Sep-18 08:34 35.238867 -120.638659 270 184ft 0kts
28-Sep-18 08:35 35.238867 -120.638659 270 184ft 0kts
28-Sep-18 08:36 35.238867 -120.638659 270 184ft 0kts
28-Sep-18 08:37 35.238867 -120.638659 270 184ft 0kts
28-Sep-18 08:38 35.238867 -120.638659 270 184ft 0kts
28-Sep-18 08:39 35.238867 -120.638659 270 184ft 0kts
28-Sep-18 08:40 35.238867 -120.638659 270 184ft 0kts
28-Sep-18 08:41 35.238867 -120.638659 270 184ft 0kts
28-Sep-18 08:42 35.238867 -120.638659 270 184ft 0kts
28-Sep-18 08:43 35.238213 -120.640017 213 184ft 4kts
28-Sep-18 08:44 35.235918 -120.636375 123 184ft 14kts
28-Sep-18 08:45 35.233448 -120.631955 118 184ft 14kts
28-Sep-18 08:46 35.233303 -120.631840 0 184ft 0kts
28-Sep-18 08:47 35.233249 -120.632269 218 184ft 0kts
28-Sep-18 08:48 35.233248 -120.632269 218 184ft 0kts
28-Sep-18 08:49 35.236177 -120.638790 306 186ft 84kts
28-Sep-18 08:50 35.253228 -120.667499 307 919ft 113kts
28-Sep-18 08:51 35.270195 -120.699158 305 1840ft 112kts
28-Sep-18 08:52 35.286006 -120.732063 286 2756ft 114kts
28-Sep-18 08:53 35.262214 -120.748754 171 3555ft 122kts
28-Sep-18 08:54 35.229823 -120.738917 143 4341ft 122kts
28-Sep-18 08:55 35.204549 -120.710247 133 5036ft 126kts
28-Sep-18 08:56 35.176398 -120.674293 127 5892ft 124kts
28-Sep-18 08:57 35.158873 -120.646172 121 6466ft 126kts
28-Sep-18 08:58 35.139329 -120.609253 122 6950ft 142kts
28-Sep-18 08:59 35.113933 -120.567779 125 6973ft 157kts
28-Sep-18 09:00 35.084467 -120.527164 130 6973ft 161kts
28-Sep-18 09:01 35.053994 -120.486642 129 6972ft 164kts
28-Sep-18 09:02 35.023107 -120.445554 129 6972ft 165kts
28-Sep-18 09:03 34.991938 -120.404192 129 6972ft 165kts
28-Sep-18 09:04 34.960981 -120.362824 129 6972ft 165kts
28-Sep-18 09:05 34.931872 -120.324353 130 6974ft 165kts
28-Sep-18 09:06 34.900628 -120.283233 129 6972ft 165kts
28-Sep-18 09:07 34.869499 -120.242377 130 6972ft 165kts
28-Sep-18 09:08 34.838426 -120.201447 129 6971ft 165kts
28-Sep-18 09:09 34.807322 -120.160497 130 6971ft 165kts
28-Sep-18 09:10 34.776188 -120.119566 130 6971ft 165kts
28-Sep-18 09:11 34.745106 -120.078661 130 7008ft 164kts
28-Sep-18 09:12 34.714019 -120.037822 129 7008ft 165kts
28-Sep-18 09:13 34.682716 -119.996775 129 7009ft 165kts
28-Sep-18 09:14 34.651540 -119.955964 129 7009ft 165kts
28-Sep-18 09:15 34.620298 -119.915042 129 7008ft 165kts
28-Sep-18 09:16 34.589018 -119.874189 130 7009ft 165kts
28-Sep-18 09:17 34.557783 -119.833428 129 7008ft 165kts
28-Sep-18 09:18 34.526538 -119.792713 130 7008ft 165kts
28-Sep-18 09:19 34.496999 -119.750152 120 7009ft 164kts
28-Sep-18 09:20 34.472109 -119.703945 120 7008ft 164kts
28-Sep-18 09:21 34.446819 -119.657919 121 7008ft 164kts
28-Sep-18 09:22 34.421322 -119.611978 120 7009ft 164kts
28-Sep-18 09:23 34.395805 -119.566225 121 7009ft 164kts
28-Sep-18 09:24 34.370223 -119.520381 121 7009ft 164kts
28-Sep-18 09:25 34.344640 -119.474616 120 7009ft 164kts
28-Sep-18 09:26 34.320813 -119.428143 99 7096ft 156kts
28-Sep-18 09:27 34.325012 -119.374923 78 7009ft 160kts
28-Sep-18 09:28 34.329477 -119.326964 82 7011ft 159kts
28-Sep-18 09:29 34.331582 -119.273474 86 7010ft 160kts
28-Sep-18 09:30 34.333304 -119.219536 84 7009ft 160kts
28-Sep-18 09:31 34.336484 -119.165972 82 7009ft 160kts
28-Sep-18 09:32 34.340186 -119.112274 83 7009ft 160kts
28-Sep-18 09:33 34.344059 -119.058746 82 7010ft 159kts
28-Sep-18 09:34 34.347961 -119.005281 81 7017ft 159kts
28-Sep-18 09:35 34.351857 -118.951777 82 7018ft 159kts
28-Sep-18 09:36 34.355713 -118.898300 82 7018ft 160kts
28-Sep-18 09:37 34.333333 -118.855635 150 7018ft 168kts
28-Sep-18 09:38 34.293348 -118.834316 152 6658ft 146kts
28-Sep-18 09:39 34.258116 -118.811086 149 5701ft 141kts
28-Sep-18 09:40 34.235467 -118.776212 110 4847ft 130kts
28-Sep-18 09:41 34.221837 -118.737544 107 4140ft 119kts
28-Sep-18 09:42 34.211734 -118.705686 109 4011ft 97kts
28-Sep-18 09:43 34.201186 -118.675890 93 4011ft 93kts
28-Sep-18 09:44 34.200204 -118.644274 82 4001ft 94kts
28-Sep-18 09:45 34.199951 -118.612846 86 4002ft 95kts
28-Sep-18 09:46 34.200406 -118.581430 85 3997ft 95kts
28-Sep-18 09:47 34.199351 -118.549856 84 3751ft 94kts
28-Sep-18 09:48 34.199419 -118.518503 88 3230ft 92kts
28-Sep-18 09:49 34.199158 -118.488091 85 2760ft 90kts
28-Sep-18 09:50 34.198813 -118.457557 88 2251ft 90kts
28-Sep-18 09:51 34.198416 -118.427503 87 1765ft 90kts
28-Sep-18 09:52 34.198303 -118.397254 86 1280ft 88kts
28-Sep-18 09:53 34.197729 -118.366452 87 1190ft 112kts
28-Sep-18 09:54 34.177656 -118.352541 222 1930ft 127kts
28-Sep-18 09:55 34.155792 -118.384984 221 2741ft 130kts
28-Sep-18 09:56 34.127910 -118.412803 222 3574ft 129kts
28-Sep-18 09:57 34.100690 -118.441156 223 4344ft 133kts
28-Sep-18 09:58 34.072872 -118.471044 224 5006ft 142kts
28-Sep-18 09:59 34.041377 -118.506634 223 5032ft 162kts
28-Sep-18 10:00 34.020533 -118.551377 283 5004ft 161kts
28-Sep-18 10:01 34.029946 -118.604380 284 5021ft 161kts
28-Sep-18 10:02 34.037750 -118.655893 284 5019ft 162kts
28-Sep-18 10:03 34.046871 -118.708556 284 5017ft 162kts
28-Sep-18 10:04 34.055960 -118.761814 283 5018ft 162kts
28-Sep-18 10:05 34.065632 -118.814971 286 5013ft 162kts
28-Sep-18 10:06 34.077153 -118.867411 288 5008ft 161kts
28-Sep-18 10:07 34.092907 -118.917321 276 4994ft 164kts
28-Sep-18 10:08 34.099544 -118.971258 291 4969ft 161kts
28-Sep-18 10:09 34.111134 -119.023485 282 4985ft 162kts
28-Sep-18 10:10 34.132763 -119.066562 323 4917ft 147kts
28-Sep-18 10:11 34.161147 -119.095091 323 4956ft 123kts
28-Sep-18 10:12 34.165014 -119.082481 184 4953ft 129kts
28-Sep-18 10:13 34.133993 -119.064111 141 4993ft 134kts
28-Sep-18 10:14 34.116265 -119.032437 44 5088ft 123kts
28-Sep-18 10:15 34.147277 -119.046033 328 5075ft 135kts
28-Sep-18 10:16 34.177796 -119.073466 326 5038ft 136kts
28-Sep-18 10:17 34.165077 -119.094153 126 4974ft 139kts
28-Sep-18 10:18 34.136550 -119.064106 143 4954ft 131kts
28-Sep-18 10:19 34.111694 -119.038308 67 5003ft 117kts
28-Sep-18 10:20 34.140880 -119.045800 335 4970ft 123kts
28-Sep-18 10:21 34.170532 -119.065973 309 4977ft 123kts
28-Sep-18 10:22 34.148345 -119.074496 153 4962ft 128kts
28-Sep-18 10:23 34.119584 -119.049403 127 4977ft 123kts
28-Sep-18 10:24 34.124248 -119.011676 63 4821ft 123kts
28-Sep-18 10:25 34.134671 -118.971694 74 4541ft 127kts
28-Sep-18 10:26 34.144956 -118.931076 64 4258ft 126kts
28-Sep-18 10:27 34.158545 -118.892122 63 4023ft 123kts
28-Sep-18 10:28 34.170399 -118.854592 68 3958ft 112kts
28-Sep-18 10:29 34.180089 -118.819225 70 3955ft 107kts
28-Sep-18 10:30 34.190098 -118.784995 68 3959ft 108kts
28-Sep-18 10:31 34.200324 -118.750475 74 3956ft 110kts
28-Sep-18 10:32 34.200414 -118.713118 84 3974ft 109kts
28-Sep-18 10:33 34.201060 -118.675996 93 3957ft 112kts
28-Sep-18 10:34 34.200118 -118.638663 82 3961ft 111kts
28-Sep-18 10:35 34.200433 -118.600512 95 3913ft 113kts
28-Sep-18 10:36 34.199429 -118.568326 81 3907ft 90kts
28-Sep-18 10:37 34.199368 -118.538565 88 3554ft 87kts
28-Sep-18 10:38 34.199884 -118.510109 90 3108ft 83kts
28-Sep-18 10:39 34.198785 -118.481427 90 2603ft 91kts
28-Sep-18 10:40 34.198626 -118.456239 90 2248ft 86kts
28-Sep-18 10:41 34.198599 -118.427282 90 1797ft 84kts
28-Sep-18 10:42 34.198237 -118.394824 85 1236ft 80kts
28-Sep-18 10:43 34.197991 -118.373096 87 863ft 74kts
28-Sep-18 10:44 34.197769 -118.358324 85 780ft 14kts
28-Sep-18 10:45 34.199553 -118.358360 293 780ft 12kts
28-Sep-18 10:46 34.200309 -118.359491 349 780ft 0kts

Navigation Log

Ident Type
Flight plan parsing failed, navigation log unavailable